createdAt,value
2018-07-26T00:02:19.477Z,26.80
2018-07-26T00:04:46.884Z,26.70
2018-07-26T00:07:14.315Z,26.70
2018-07-26T00:09:41.721Z,26.70
2018-07-26T00:12:09.138Z,26.60
2018-07-26T00:14:36.519Z,26.60
2018-07-26T00:17:03.917Z,26.60
2018-07-26T00:19:31.275Z,26.50
2018-07-26T00:21:58.649Z,26.50
2018-07-26T00:24:26.026Z,26.50
2018-07-26T00:26:53.382Z,26.40
2018-07-26T00:29:21.041Z,26.40
2018-07-26T00:31:48.429Z,26.30
2018-07-26T00:34:15.786Z,26.30
2018-07-26T00:36:43.251Z,26.20
2018-07-26T00:39:11.308Z,26.20
2018-07-26T00:41:38.741Z,26.20
2018-07-26T00:44:06.645Z,26.10
2018-07-26T00:46:34.079Z,26.00
2018-07-26T00:49:01.520Z,26.00
2018-07-26T00:51:28.950Z,26.00
2018-07-26T00:53:56.378Z,26.00
2018-07-26T00:56:23.759Z,25.90
2018-07-26T00:58:51.136Z,25.80
2018-07-26T01:01:18.541Z,25.80
2018-07-26T01:03:45.926Z,25.80
2018-07-26T01:06:13.300Z,25.70
2018-07-26T01:08:40.724Z,25.70
2018-07-26T01:11:08.118Z,25.70
2018-07-26T01:13:35.690Z,25.70
2018-07-26T01:18:30.443Z,25.60
2018-07-26T01:20:57.845Z,25.60
2018-07-26T01:23:25.284Z,25.60
2018-07-26T01:25:52.842Z,25.60
2018-07-26T01:28:20.639Z,25.60
2018-07-26T01:30:48.036Z,25.50
2018-07-26T01:33:15.883Z,25.60
2018-07-26T01:35:43.524Z,25.50
2018-07-26T01:38:10.908Z,25.60
2018-07-26T01:40:38.440Z,25.50
2018-07-26T01:43:46.763Z,25.50
2018-07-26T01:46:14.372Z,25.50
2018-07-26T01:48:42.487Z,25.50
2018-07-26T01:51:10.321Z,25.50
2018-07-26T01:53:37.760Z,25.50
2018-07-26T01:56:05.684Z,25.40
2018-07-26T01:58:33.051Z,25.50
2018-07-26T02:01:00.432Z,25.50
2018-07-26T02:03:27.861Z,25.50
2018-07-26T02:05:55.511Z,25.40
2018-07-26T02:10:50.487Z,25.40
2018-07-26T02:13:17.860Z,25.40
2018-07-26T02:15:45.275Z,25.40
2018-07-26T02:18:12.647Z,25.30
2018-07-26T02:20:40.011Z,25.30
2018-07-26T02:23:07.429Z,25.30
2018-07-26T02:25:35.068Z,25.30
2018-07-26T02:28:02.464Z,25.30
2018-07-26T02:30:29.892Z,25.30
2018-07-26T02:32:57.309Z,25.30
2018-07-26T02:35:24.800Z,25.20
2018-07-26T02:37:52.410Z,25.20
2018-07-26T02:40:19.839Z,25.20
2018-07-26T02:42:47.363Z,25.20
2018-07-26T02:45:14.877Z,25.10
2018-07-26T02:47:42.267Z,25.10
2018-07-26T02:52:37.386Z,25.00
2018-07-26T02:55:04.778Z,25.00
2018-07-26T02:57:32.391Z,25.00
2018-07-26T02:59:59.755Z,25.00
2018-07-26T03:02:27.107Z,25.00
2018-07-26T03:04:54.484Z,24.90
2018-07-26T03:07:21.896Z,24.90
2018-07-26T03:09:49.274Z,24.90
2018-07-26T03:12:16.656Z,24.90
2018-07-26T03:14:44.610Z,24.90
2018-07-26T03:17:13.599Z,24.80
2018-07-26T03:19:41.674Z,24.80
2018-07-26T03:22:09.064Z,24.70
2018-07-26T03:24:36.793Z,24.70
2018-07-26T03:27:04.203Z,24.70
2018-07-26T03:29:31.695Z,24.70
2018-07-26T03:31:59.078Z,24.70
2018-07-26T03:34:26.518Z,24.70
2018-07-26T03:36:54.185Z,24.60
2018-07-26T03:39:21.567Z,24.60
2018-07-26T03:41:48.919Z,24.60
2018-07-26T03:44:16.326Z,24.60
2018-07-26T03:46:44.095Z,24.60
2018-07-26T03:49:11.754Z,24.60
2018-07-26T03:51:39.180Z,24.60
2018-07-26T03:54:06.560Z,24.50
2018-07-26T03:56:33.934Z,24.50
2018-07-26T03:59:01.492Z,24.50
2018-07-26T04:01:28.875Z,24.50
2018-07-26T04:03:56.253Z,24.50
2018-07-26T04:06:23.679Z,24.40
2018-07-26T04:08:51.214Z,24.40
2018-07-26T04:11:18.867Z,24.40
2018-07-26T04:13:46.341Z,24.40
2018-07-26T04:16:13.740Z,24.40
2018-07-26T04:18:41.132Z,24.40
2018-07-26T04:21:08.507Z,24.40
2018-07-26T04:23:36.049Z,24.30
2018-07-26T04:26:03.466Z,24.30
2018-07-26T04:28:30.850Z,24.30
2018-07-26T04:30:58.248Z,24.30
2018-07-26T04:33:25.626Z,24.30
2018-07-26T04:35:52.996Z,24.30
2018-07-26T04:38:20.388Z,24.30
2018-07-26T04:40:47.822Z,24.30
2018-07-26T04:43:15.215Z,24.30
2018-07-26T04:45:42.618Z,24.30
2018-07-26T04:48:10.007Z,24.30
2018-07-26T04:50:37.867Z,24.30
2018-07-26T04:53:05.251Z,24.40
2018-07-26T04:55:32.667Z,24.40
2018-07-26T04:58:00.054Z,24.40
2018-07-26T05:00:27.817Z,24.40
2018-07-26T05:02:55.313Z,24.50
2018-07-26T05:05:23.016Z,24.50
2018-07-26T05:07:50.430Z,24.60
2018-07-26T05:10:17.860Z,24.60
2018-07-26T05:12:45.259Z,24.60
2018-07-26T05:15:12.664Z,24.60
2018-07-26T05:17:40.048Z,24.70
2018-07-26T05:20:07.924Z,24.70
2018-07-26T05:22:35.736Z,24.80
2018-07-26T05:25:03.189Z,24.80
2018-07-26T05:27:30.843Z,24.90
2018-07-26T05:29:58.240Z,24.90
2018-07-26T05:32:25.631Z,25.00
2018-07-26T05:34:53.032Z,25.00
2018-07-26T05:37:20.398Z,25.10
2018-07-26T05:39:47.790Z,25.10
2018-07-26T05:42:15.146Z,25.20
2018-07-26T05:44:42.556Z,25.30
2018-07-26T05:47:10.288Z,25.30
2018-07-26T05:49:37.715Z,25.40
2018-07-26T05:52:05.520Z,25.50
2018-07-26T05:54:32.928Z,25.70
2018-07-26T05:57:00.324Z,25.90
2018-07-26T05:59:27.764Z,26.10
2018-07-26T06:01:55.191Z,26.40
2018-07-26T06:04:22.555Z,26.70
2018-07-26T06:06:49.984Z,26.90
2018-07-26T06:09:17.391Z,27.20
2018-07-26T06:14:12.208Z,27.70
2018-07-26T06:16:39.617Z,28.00
2018-07-26T06:19:07.024Z,28.20
2018-07-26T06:24:01.881Z,28.70
2018-07-26T06:26:29.292Z,28.90
2018-07-26T06:28:56.677Z,29.20
2018-07-26T06:31:24.047Z,29.40
2018-07-26T06:33:51.461Z,29.60
2018-07-26T06:36:18.876Z,29.80
2018-07-26T06:38:46.301Z,30.00
2018-07-26T06:41:13.738Z,30.20
2018-07-26T06:43:41.120Z,30.30
2018-07-26T06:46:08.647Z,30.50
2018-07-26T06:48:36.067Z,30.60
2018-07-26T06:51:03.488Z,30.70
2018-07-26T06:53:30.921Z,30.60
2018-07-26T06:55:58.309Z,30.80
2018-07-26T06:58:25.735Z,31.00
2018-07-26T07:03:27.235Z,31.30
2018-07-26T07:05:54.624Z,31.40
2018-07-26T07:08:22.023Z,31.50
2018-07-26T07:10:49.458Z,31.60
2018-07-26T07:13:16.860Z,31.80
2018-07-26T07:15:44.212Z,31.90
2018-07-26T07:18:11.743Z,32.00
2018-07-26T07:20:39.156Z,32.10
2018-07-26T07:23:06.640Z,32.20
2018-07-26T07:25:34.000Z,32.30
2018-07-26T07:28:01.356Z,32.40
2018-07-26T07:30:28.775Z,32.50
2018-07-26T07:32:56.177Z,32.60
2018-07-26T07:35:23.635Z,32.60
2018-07-26T07:37:50.991Z,32.60
2018-07-26T07:40:18.417Z,32.70
2018-07-26T07:45:13.203Z,32.70
2018-07-26T07:47:40.613Z,32.70
2018-07-26T07:50:08.000Z,32.70
2018-07-26T07:52:35.468Z,32.80
2018-07-26T07:55:02.964Z,32.90
2018-07-26T07:57:30.638Z,32.80
2018-07-26T07:59:58.040Z,32.80
2018-07-26T08:02:25.425Z,32.80
2018-07-26T08:04:52.851Z,32.90
2018-07-26T08:07:20.247Z,32.80
2018-07-26T08:09:47.635Z,32.90
2018-07-26T08:12:15.105Z,32.90
2018-07-26T08:14:42.499Z,32.90
2018-07-26T08:17:09.893Z,32.90
2018-07-26T08:19:37.289Z,33.00
2018-07-26T08:22:05.141Z,33.00
2018-07-26T08:24:32.516Z,33.00
2018-07-26T08:26:59.947Z,33.10
2018-07-26T08:29:27.393Z,33.20
2018-07-26T08:31:54.831Z,33.20
2018-07-26T08:34:22.215Z,33.30
2018-07-26T08:36:49.654Z,33.30
2018-07-26T08:39:17.156Z,33.40
2018-07-26T08:41:44.556Z,33.40
2018-07-26T08:44:12.112Z,33.50
2018-07-26T08:46:39.559Z,33.60
2018-07-26T08:49:07.322Z,33.60
2018-07-26T08:51:34.745Z,33.70
2018-07-26T08:54:02.145Z,33.80
2018-07-26T08:56:29.549Z,33.80
2018-07-26T08:58:57.127Z,33.90
2018-07-26T09:01:24.521Z,33.90
2018-07-26T09:03:51.895Z,34.00
2018-07-26T09:06:19.262Z,34.10
2018-07-26T09:08:46.624Z,34.20
2018-07-26T09:11:14.017Z,34.30
2018-07-26T09:13:41.442Z,34.30
2018-07-26T09:16:08.875Z,34.50
2018-07-26T09:18:36.320Z,34.60
2018-07-26T09:21:03.704Z,34.70
2018-07-26T09:23:31.141Z,34.80
2018-07-26T09:25:58.511Z,34.90
2018-07-26T09:28:25.896Z,35.00
2018-07-26T09:30:53.476Z,35.10
2018-07-26T09:33:20.888Z,35.20
2018-07-26T09:35:48.311Z,35.30
2018-07-26T09:38:15.730Z,35.40
2018-07-26T09:40:43.127Z,35.50
2018-07-26T09:43:10.536Z,35.60
2018-07-26T09:45:37.971Z,35.60
2018-07-26T09:48:05.374Z,35.70
2018-07-26T09:50:32.788Z,35.90
2018-07-26T09:55:27.613Z,36.10
2018-07-26T09:57:55.124Z,36.20
2018-07-26T10:00:28.406Z,36.40
2018-07-26T10:02:56.034Z,36.40
2018-07-26T10:05:23.441Z,36.50
2018-07-26T10:07:50.876Z,36.60
2018-07-26T10:10:18.277Z,36.70
2018-07-26T10:12:45.673Z,36.80
2018-07-26T10:15:13.093Z,36.90
2018-07-26T10:17:40.565Z,37.00
2018-07-26T10:20:07.986Z,37.10
2018-07-26T10:22:35.392Z,37.20
2018-07-26T10:25:02.852Z,37.30
2018-07-26T10:27:30.252Z,37.40
2018-07-26T10:29:57.638Z,37.50
2018-07-26T10:32:25.055Z,37.50
2018-07-26T10:34:52.445Z,37.60
2018-07-26T10:37:19.916Z,37.70
2018-07-26T10:39:47.292Z,37.70
2018-07-26T10:42:14.685Z,37.90
2018-07-26T10:44:42.076Z,37.90
2018-07-26T10:47:09.460Z,38.00
2018-07-26T10:49:36.876Z,38.00
2018-07-26T10:52:04.331Z,38.10
2018-07-26T10:54:31.736Z,38.20
2018-07-26T10:56:59.132Z,38.20
2018-07-26T10:59:26.665Z,38.20
2018-07-26T11:01:54.072Z,38.30
2018-07-26T11:04:21.491Z,38.30
2018-07-26T11:06:48.992Z,38.40
2018-07-26T11:09:16.408Z,38.40
2018-07-26T11:11:43.843Z,38.50
2018-07-26T11:16:38.669Z,38.60
2018-07-26T11:19:06.229Z,38.70
2018-07-26T11:21:33.636Z,38.90
2018-07-26T11:24:01.049Z,38.90
2018-07-26T11:26:28.465Z,39.10
2018-07-26T11:28:55.887Z,39.10
2018-07-26T11:31:23.293Z,39.20
2018-07-26T11:36:18.158Z,39.30
2018-07-26T11:38:45.652Z,39.30
2018-07-26T11:41:13.175Z,39.40
2018-07-26T11:43:40.778Z,39.40
2018-07-26T11:46:08.229Z,39.50
2018-07-26T11:48:35.637Z,39.60
2018-07-26T11:51:03.140Z,39.60
2018-07-26T11:53:30.583Z,39.60
2018-07-26T11:55:58.070Z,39.70
2018-07-26T11:58:25.496Z,39.70
2018-07-26T12:00:53.140Z,39.80
2018-07-26T12:03:20.663Z,39.90
2018-07-26T12:05:48.120Z,39.90
2018-07-26T12:08:15.570Z,40.00
2018-07-26T12:10:42.995Z,40.00
2018-07-26T12:13:10.432Z,40.10
2018-07-26T12:15:37.905Z,40.20
2018-07-26T12:18:05.375Z,40.30
2018-07-26T12:20:32.828Z,40.30
2018-07-26T12:23:00.274Z,40.40
2018-07-26T12:25:27.695Z,40.40
2018-07-26T12:27:55.173Z,40.40
2018-07-26T12:30:22.584Z,40.40
2018-07-26T12:32:49.999Z,40.40
2018-07-26T12:35:17.453Z,40.40
2018-07-26T12:37:44.897Z,40.50
2018-07-26T12:40:12.317Z,40.50
2018-07-26T12:42:39.744Z,40.50
2018-07-26T12:45:07.239Z,40.50
2018-07-26T12:47:34.694Z,40.50
2018-07-26T12:50:02.319Z,40.50
2018-07-26T12:52:29.770Z,40.50
2018-07-26T12:54:57.195Z,40.40
2018-07-26T12:57:24.655Z,40.40
2018-07-26T12:59:52.074Z,40.30
2018-07-26T13:02:19.497Z,40.30
2018-07-26T13:07:14.378Z,40.30
2018-07-26T13:09:41.775Z,40.30
2018-07-26T13:12:09.439Z,40.40
2018-07-26T13:14:36.857Z,40.40
2018-07-26T13:17:04.323Z,40.50
2018-07-26T13:19:31.831Z,40.50
2018-07-26T13:21:59.290Z,40.60
2018-07-26T13:24:26.729Z,40.60
2018-07-26T13:26:54.323Z,40.60
2018-07-26T13:29:22.296Z,40.70
2018-07-26T13:31:49.713Z,40.70
2018-07-26T13:34:17.197Z,40.70
2018-07-26T13:36:44.626Z,40.70
2018-07-26T13:41:40.840Z,40.70
2018-07-26T13:44:08.377Z,40.80
2018-07-26T13:46:36.342Z,40.70
2018-07-26T13:49:03.776Z,40.80
2018-07-26T13:51:31.217Z,40.90
2018-07-26T13:53:58.900Z,40.90
2018-07-26T13:56:26.470Z,40.90
2018-07-26T13:58:53.946Z,41.00
2018-07-26T14:01:21.428Z,41.00
2018-07-26T14:03:49.050Z,41.00
2018-07-26T14:06:16.478Z,41.00
2018-07-26T14:08:43.899Z,41.10
2018-07-26T14:11:11.471Z,41.10
2018-07-26T14:13:45.365Z,41.10
2018-07-26T14:16:12.789Z,41.00
2018-07-26T14:18:40.205Z,41.10
2018-07-26T14:21:07.694Z,41.10
2018-07-26T14:23:36.933Z,41.10
2018-07-26T14:26:05.603Z,41.20
2018-07-26T14:31:00.529Z,41.30
2018-07-26T14:33:27.980Z,41.40
2018-07-26T14:35:55.565Z,41.40
2018-07-26T14:38:23.162Z,41.50
2018-07-26T14:40:50.520Z,41.50
2018-07-26T14:43:18.013Z,41.50
2018-07-26T14:45:45.435Z,41.50
2018-07-26T14:48:12.912Z,41.50
2018-07-26T14:50:40.380Z,41.60
2018-07-26T14:53:07.818Z,41.60
2018-07-26T14:55:35.276Z,41.60
2018-07-26T14:58:02.784Z,41.70
2018-07-26T15:00:30.322Z,41.70
2018-07-26T15:02:57.769Z,41.70
2018-07-26T15:07:52.797Z,41.80
2018-07-26T15:10:20.300Z,41.90
2018-07-26T15:12:47.771Z,41.90
2018-07-26T15:15:15.251Z,42.00
2018-07-26T15:17:42.739Z,42.10
2018-07-26T15:20:10.160Z,42.20
2018-07-26T15:22:37.603Z,42.30
2018-07-26T15:25:05.228Z,42.40
2018-07-26T15:27:32.667Z,42.50
2018-07-26T15:30:00.083Z,42.50
2018-07-26T15:32:27.599Z,42.40
2018-07-26T15:34:55.043Z,42.30
2018-07-26T15:37:22.475Z,42.20
2018-07-26T15:39:50.029Z,42.10
2018-07-26T15:42:17.532Z,41.90
2018-07-26T15:44:44.959Z,41.80
2018-07-26T15:47:12.432Z,41.60
2018-07-26T15:49:39.874Z,41.50
2018-07-26T15:52:07.331Z,41.30
2018-07-26T15:54:35.012Z,41.20
2018-07-26T15:57:02.603Z,41.10
2018-07-26T15:59:30.081Z,41.00
2018-07-26T16:01:57.605Z,40.90
2018-07-26T16:04:25.097Z,40.80
2018-07-26T16:06:52.596Z,40.80
2018-07-26T16:09:20.164Z,40.80
2018-07-26T16:11:47.695Z,40.70
2018-07-26T16:14:15.451Z,40.70
2018-07-26T16:16:43.006Z,40.60
2018-07-26T16:19:10.418Z,40.60
2018-07-26T16:21:37.884Z,40.50
2018-07-26T16:24:05.347Z,40.40
2018-07-26T16:26:32.844Z,40.30
2018-07-26T16:29:00.320Z,40.30
2018-07-26T16:31:27.714Z,40.30
2018-07-26T16:33:55.142Z,40.20
2018-07-26T16:36:22.561Z,40.20
2018-07-26T16:38:49.995Z,40.20
2018-07-26T16:41:17.480Z,40.20
2018-07-26T16:43:45.008Z,40.30
2018-07-26T16:46:12.432Z,40.30
2018-07-26T16:48:40.108Z,40.40
2018-07-26T16:51:07.556Z,40.40
2018-07-26T16:53:34.991Z,40.40
2018-07-26T16:56:02.432Z,40.50
2018-07-26T16:58:30.063Z,40.50
2018-07-26T17:00:57.365Z,40.60
2018-07-26T17:03:24.819Z,40.60
2018-07-26T17:05:52.580Z,40.60
2018-07-26T17:08:20.072Z,40.60
2018-07-26T17:10:47.520Z,40.50
2018-07-26T17:13:14.967Z,40.50
2018-07-26T17:15:42.506Z,40.40
2018-07-26T17:18:09.992Z,40.20
2018-07-26T17:20:37.445Z,40.10
2018-07-26T17:23:04.919Z,40.00
2018-07-26T17:25:32.349Z,39.90
2018-07-26T17:27:59.832Z,39.80
2018-07-26T17:30:27.285Z,39.70
2018-07-26T17:32:54.711Z,39.60
2018-07-26T17:35:22.151Z,39.50
2018-07-26T17:40:16.992Z,39.30
2018-07-26T17:42:44.442Z,39.10
2018-07-26T17:45:11.987Z,39.00
2018-07-26T17:50:08.633Z,38.70
2018-07-26T17:52:36.027Z,38.60
2018-07-26T17:55:03.591Z,38.50
2018-07-26T17:57:31.023Z,38.30
2018-07-26T17:59:58.427Z,38.10
2018-07-26T18:02:25.876Z,38.00
2018-07-26T18:04:53.297Z,37.80
2018-07-26T18:07:20.718Z,37.60
2018-07-26T18:09:48.150Z,37.40
2018-07-26T18:12:15.618Z,37.30
2018-07-26T18:14:43.079Z,37.10
2018-07-26T18:19:37.924Z,36.80
2018-07-26T18:22:05.675Z,36.60
2018-07-26T18:24:33.093Z,36.40
2018-07-26T18:27:00.543Z,36.20
2018-07-26T18:29:27.965Z,36.00
2018-07-26T18:31:55.368Z,35.90
2018-07-26T18:34:22.805Z,35.70
2018-07-26T18:36:50.227Z,35.60
2018-07-26T18:39:17.638Z,35.40
2018-07-26T18:41:45.061Z,35.30
2018-07-26T18:44:12.602Z,35.10
2018-07-26T18:46:40.118Z,35.00
2018-07-26T18:49:08.603Z,34.90
2018-07-26T18:51:36.025Z,34.80
2018-07-26T18:54:03.503Z,34.50
2018-07-26T18:56:30.899Z,34.10
2018-07-26T18:58:58.381Z,33.70
2018-07-26T19:01:25.815Z,33.40
2018-07-26T19:03:53.496Z,33.10
2018-07-26T19:06:20.925Z,32.80
2018-07-26T19:08:48.421Z,32.70
2018-07-26T19:11:15.882Z,32.50
2018-07-26T19:13:43.330Z,32.40
2018-07-26T19:16:10.763Z,32.30
2018-07-26T19:18:38.251Z,32.20
2018-07-26T19:21:06.239Z,32.10
2018-07-26T19:23:33.820Z,32.00
2018-07-26T19:26:01.403Z,32.00
2018-07-26T19:28:28.807Z,31.90
2018-07-26T19:30:56.232Z,31.80
2018-07-26T19:33:23.674Z,31.80
2018-07-26T19:35:51.171Z,31.70
2018-07-26T19:38:18.712Z,31.70
2018-07-26T19:40:46.364Z,31.60
2018-07-26T19:43:13.914Z,31.50
2018-07-26T19:45:41.356Z,31.50
2018-07-26T19:48:08.827Z,31.40
2018-07-26T19:50:36.276Z,31.30
2018-07-26T19:53:03.750Z,31.20
2018-07-26T19:55:31.216Z,31.20
2018-07-26T19:57:58.663Z,31.10
2018-07-26T20:00:26.614Z,31.10
2018-07-26T20:02:54.096Z,31.10
2018-07-26T20:05:21.517Z,31.00
2018-07-26T20:07:48.978Z,31.00
2018-07-26T20:10:16.423Z,31.00
2018-07-26T20:12:44.016Z,31.00
2018-07-26T20:15:11.520Z,31.00
2018-07-26T20:17:38.942Z,30.90
2018-07-26T20:20:08.219Z,30.90
2018-07-26T20:22:35.735Z,30.80
2018-07-26T20:25:03.220Z,30.80
2018-07-26T20:27:30.619Z,30.70
2018-07-26T20:29:58.139Z,30.60
2018-07-26T20:32:25.805Z,30.60
2018-07-26T20:34:54.011Z,30.50
2018-07-26T20:37:21.487Z,30.40
2018-07-26T20:39:48.967Z,30.40
2018-07-26T20:42:16.407Z,30.30
2018-07-26T20:44:43.835Z,30.30
2018-07-26T20:47:11.428Z,30.20
2018-07-26T20:49:38.917Z,30.20
2018-07-26T20:52:06.461Z,30.20
2018-07-26T20:54:34.094Z,30.10
2018-07-26T20:57:01.528Z,30.10
2018-07-26T20:59:28.970Z,30.10
2018-07-26T21:01:56.386Z,30.10
2018-07-26T21:04:23.828Z,30.00
2018-07-26T21:06:51.312Z,30.00
2018-07-26T21:09:18.760Z,30.00
2018-07-26T21:11:46.219Z,30.00
2018-07-26T21:14:13.647Z,30.00
2018-07-26T21:19:08.566Z,29.90
2018-07-26T21:21:35.962Z,29.90
2018-07-26T21:24:03.440Z,29.90
2018-07-26T21:26:30.836Z,29.90
2018-07-26T21:31:25.655Z,29.80
2018-07-26T21:33:53.033Z,29.80
2018-07-26T21:36:20.922Z,29.80
2018-07-26T21:38:48.315Z,29.80
2018-07-26T21:41:15.911Z,29.90
2018-07-26T21:43:43.325Z,29.90
2018-07-26T21:48:38.221Z,29.90
2018-07-26T21:51:05.865Z,29.90
2018-07-26T21:53:33.285Z,29.90
2018-07-26T21:56:00.702Z,29.90
2018-07-26T21:58:29.372Z,29.90
2018-07-26T22:00:57.830Z,29.90
2018-07-26T22:03:26.619Z,29.90
2018-07-26T22:05:54.287Z,29.90
2018-07-26T22:08:21.669Z,29.90
2018-07-26T22:10:49.607Z,29.90
2018-07-26T22:13:17.370Z,29.90
2018-07-26T22:15:44.890Z,30.00
2018-07-26T22:18:12.293Z,30.00
2018-07-26T22:20:39.970Z,30.00
2018-07-26T22:23:07.721Z,30.00
2018-07-26T22:25:35.251Z,30.00
2018-07-26T22:28:02.943Z,29.90
2018-07-26T22:30:30.399Z,30.00
2018-07-26T22:32:58.126Z,30.00
2018-07-26T22:35:25.557Z,30.00
2018-07-26T22:37:52.988Z,30.10
2018-07-26T22:40:20.407Z,30.00
2018-07-26T22:42:48.485Z,30.00
2018-07-26T22:45:15.887Z,30.00
2018-07-26T22:47:43.282Z,30.00
2018-07-26T22:50:10.588Z,30.00
2018-07-26T22:52:38.034Z,30.10
2018-07-26T22:55:05.583Z,30.00
2018-07-26T22:57:33.025Z,30.10
2018-07-26T23:00:00.427Z,30.10
2018-07-26T23:02:27.823Z,30.10
2018-07-26T23:04:55.275Z,30.10
2018-07-26T23:07:22.739Z,30.00
2018-07-26T23:09:50.137Z,30.00
2018-07-26T23:12:17.596Z,30.00
2018-07-26T23:14:45.026Z,30.00
2018-07-26T23:17:12.440Z,30.00
2018-07-26T23:19:39.839Z,30.00
2018-07-26T23:22:07.268Z,30.00
2018-07-26T23:24:34.612Z,30.00
2018-07-26T23:27:02.076Z,30.00
2018-07-26T23:29:29.646Z,29.90
2018-07-26T23:31:57.066Z,29.90
2018-07-26T23:34:24.458Z,29.90
2018-07-26T23:36:51.891Z,29.90
2018-07-26T23:39:19.294Z,29.90
2018-07-26T23:41:46.707Z,29.80
2018-07-26T23:44:14.104Z,29.90
2018-07-26T23:46:42.284Z,29.80
2018-07-26T23:49:09.670Z,29.80
2018-07-26T23:51:37.094Z,29.80
2018-07-26T23:54:04.522Z,29.70
2018-07-26T23:56:31.981Z,29.70
2018-07-26T23:58:59.384Z,29.70
